createdAt,value
2018-09-29T00:00:27.030Z,2.57
2018-09-29T00:02:30.891Z,2.70
2018-09-29T00:04:34.543Z,2.20
2018-09-29T00:06:38.161Z,2.80
2018-09-29T00:08:41.975Z,2.57
2018-09-29T00:10:45.600Z,2.53
2018-09-29T00:12:49.130Z,2.27
2018-09-29T00:14:52.694Z,2.13
2018-09-29T00:16:56.270Z,2.70
2018-09-29T00:18:59.901Z,2.20
2018-09-29T00:21:03.394Z,2.23
2018-09-29T00:23:07.239Z,2.30
2018-09-29T00:25:10.811Z,2.20
2018-09-29T00:27:14.328Z,2.10
2018-09-29T00:29:18.011Z,2.40
2018-09-29T00:31:21.528Z,2.60
2018-09-29T00:33:25.065Z,2.40
2018-09-29T00:35:28.861Z,2.30
2018-09-29T00:37:32.753Z,2.20
2018-09-29T00:39:36.329Z,2.17
2018-09-29T00:41:39.888Z,2.20
2018-09-29T00:43:43.419Z,2.07
2018-09-29T00:45:47.191Z,2.17
2018-09-29T00:47:50.928Z,1.90
2018-09-29T00:49:54.457Z,2.00
2018-09-29T00:51:57.940Z,2.00
2018-09-29T00:54:01.500Z,1.80
2018-09-29T00:56:05.026Z,2.53
2018-09-29T00:58:08.613Z,1.87
2018-09-29T01:00:12.165Z,2.37
2018-09-29T01:02:15.740Z,2.20
2018-09-29T01:04:19.504Z,2.53
2018-09-29T01:06:23.260Z,2.47
2018-09-29T01:08:26.884Z,1.77
2018-09-29T01:10:30.391Z,1.90
2018-09-29T01:12:34.049Z,1.97
2018-09-29T01:14:38.017Z,2.20
2018-09-29T01:16:41.703Z,2.03
2018-09-29T01:18:45.380Z,2.10
2018-09-29T01:20:48.996Z,2.10
2018-09-29T01:22:52.569Z,2.47
2018-09-29T01:24:56.285Z,2.83
2018-09-29T01:26:59.819Z,2.37
2018-09-29T01:29:03.375Z,1.97
2018-09-29T01:31:07.561Z,2.10
2018-09-29T01:33:11.184Z,2.00
2018-09-29T01:35:14.732Z,2.20
2018-09-29T01:37:18.496Z,1.63
2018-09-29T01:39:22.041Z,2.40
2018-09-29T01:41:25.704Z,2.10
2018-09-29T01:43:29.237Z,1.80
2018-09-29T01:45:32.779Z,2.00
2018-09-29T01:47:36.367Z,2.17
2018-09-29T01:49:39.923Z,2.20
2018-09-29T01:51:43.531Z,2.00
2018-09-29T01:53:47.332Z,2.07
2018-09-29T01:55:51.096Z,1.87
2018-09-29T01:57:54.793Z,1.97
2018-09-29T01:59:58.380Z,2.10
2018-09-29T02:02:02.108Z,1.90
2018-09-29T02:04:05.650Z,1.70
2018-09-29T02:06:09.202Z,1.83
2018-09-29T02:08:12.862Z,2.07
2018-09-29T02:10:16.437Z,2.00
2018-09-29T02:12:20.291Z,2.10
2018-09-29T02:14:23.934Z,2.57
2018-09-29T02:16:27.532Z,2.17
2018-09-29T02:18:31.040Z,2.20
2018-09-29T02:20:34.741Z,1.97
2018-09-29T02:22:38.272Z,1.83
2018-09-29T02:24:41.772Z,1.67
2018-09-29T02:26:45.408Z,2.00
2018-09-29T02:28:49.070Z,2.17
2018-09-29T02:30:52.577Z,1.83
2018-09-29T02:32:56.223Z,2.10
2018-09-29T02:34:59.827Z,2.17
2018-09-29T02:37:03.474Z,2.20
2018-09-29T02:39:10.021Z,2.23
2018-09-29T02:41:13.644Z,1.83
2018-09-29T02:43:17.388Z,2.30
2018-09-29T02:45:21.023Z,2.43
2018-09-29T02:47:24.625Z,2.00
2018-09-29T02:49:28.171Z,2.10
2018-09-29T02:51:31.884Z,2.00
2018-09-29T02:53:35.689Z,1.93
2018-09-29T02:55:39.209Z,2.00
2018-09-29T02:57:42.967Z,1.50
2018-09-29T02:59:46.810Z,1.97
2018-09-29T03:01:50.567Z,1.80
2018-09-29T03:03:54.156Z,2.07
2018-09-29T03:05:57.874Z,2.20
2018-09-29T03:08:01.405Z,1.60
2018-09-29T03:10:04.979Z,1.93
2018-09-29T03:12:08.560Z,1.80
2018-09-29T03:14:12.112Z,1.60
2018-09-29T03:16:15.683Z,2.10
2018-09-29T03:18:19.427Z,2.10
2018-09-29T03:20:22.947Z,1.57
2018-09-29T03:22:26.565Z,1.80
2018-09-29T03:24:30.179Z,2.57
2018-09-29T03:26:33.974Z,2.00
2018-09-29T03:28:37.523Z,2.07
2018-09-29T03:30:41.127Z,2.00
2018-09-29T03:32:44.687Z,1.70
2018-09-29T03:34:48.242Z,1.77
2018-09-29T03:36:51.802Z,1.87
2018-09-29T03:38:55.358Z,1.67
2018-09-29T03:40:59.000Z,1.80
2018-09-29T03:43:02.527Z,1.97
2018-09-29T03:45:06.326Z,2.20
2018-09-29T03:47:09.869Z,1.90
2018-09-29T03:49:13.620Z,1.87
2018-09-29T03:51:20.095Z,1.90
2018-09-29T03:53:23.839Z,1.60
2018-09-29T03:55:27.452Z,1.77
2018-09-29T03:57:31.062Z,1.97
2018-09-29T03:59:34.619Z,2.00
2018-09-29T04:01:38.145Z,1.80
2018-09-29T04:03:41.781Z,1.90
2018-09-29T04:05:45.320Z,1.67
2018-09-29T04:07:48.808Z,2.43
2018-09-29T04:09:52.328Z,1.77
2018-09-29T04:11:55.870Z,1.87
2018-09-29T04:13:59.575Z,1.53
2018-09-29T04:16:03.089Z,2.30
2018-09-29T04:18:06.909Z,2.07
2018-09-29T04:20:10.459Z,2.20
2018-09-29T04:22:14.001Z,1.80
2018-09-29T04:24:18.495Z,2.07
2018-09-29T04:26:22.165Z,1.77
2018-09-29T04:28:25.885Z,1.90
2018-09-29T04:30:29.385Z,2.00
2018-09-29T04:32:32.905Z,2.03
2018-09-29T04:34:36.583Z,1.87
2018-09-29T04:36:40.416Z,1.60
2018-09-29T04:38:43.894Z,1.80
2018-09-29T04:40:47.408Z,2.13
2018-09-29T04:42:50.933Z,2.60
2018-09-29T04:44:54.440Z,2.00
2018-09-29T04:46:57.988Z,1.97
2018-09-29T04:49:01.545Z,2.57
2018-09-29T04:51:05.078Z,2.60
2018-09-29T04:53:08.716Z,1.80
2018-09-29T04:55:12.383Z,1.80
2018-09-29T04:57:15.884Z,1.63
2018-09-29T04:59:19.419Z,2.20
2018-09-29T05:01:22.988Z,2.00
2018-09-29T05:03:26.536Z,2.30
2018-09-29T05:05:30.140Z,1.83
2018-09-29T05:07:33.857Z,1.70
2018-09-29T05:09:37.500Z,1.97
2018-09-29T05:11:41.044Z,2.13
2018-09-29T05:13:44.779Z,2.27
2018-09-29T05:15:48.271Z,2.33
2018-09-29T05:17:51.961Z,2.10
2018-09-29T05:19:55.460Z,2.07
2018-09-29T05:21:59.135Z,2.30
2018-09-29T05:24:02.653Z,2.17
2018-09-29T05:26:06.556Z,2.37
2018-09-29T05:28:10.096Z,2.20
2018-09-29T05:30:13.651Z,2.30
2018-09-29T05:32:17.298Z,2.43
2018-09-29T05:34:20.839Z,2.07
2018-09-29T05:36:24.384Z,3.13
2018-09-29T05:38:28.197Z,2.17
2018-09-29T05:40:31.637Z,2.20
2018-09-29T05:42:35.147Z,1.87
2018-09-29T05:44:38.751Z,2.20
2018-09-29T05:46:42.368Z,1.70
2018-09-29T05:48:45.871Z,2.13
2018-09-29T05:50:49.388Z,2.23
2018-09-29T05:52:52.918Z,2.50
2018-09-29T05:54:56.668Z,2.70
2018-09-29T05:57:00.176Z,1.63
2018-09-29T05:59:03.849Z,2.50
2018-09-29T06:01:07.408Z,1.80
2018-09-29T06:03:10.985Z,1.93
2018-09-29T06:05:14.622Z,1.80
2018-09-29T06:07:18.298Z,2.00
2018-09-29T06:09:21.776Z,2.20
2018-09-29T06:11:25.312Z,2.07
2018-09-29T06:13:28.916Z,1.83
2018-09-29T06:15:32.485Z,1.90
2018-09-29T06:17:36.175Z,1.70
2018-09-29T06:19:39.736Z,1.63
2018-09-29T06:21:43.408Z,2.33
2018-09-29T06:23:46.930Z,1.83
2018-09-29T06:25:50.484Z,2.20
2018-09-29T06:27:54.081Z,1.50
2018-09-29T06:29:57.544Z,1.80
2018-09-29T06:32:01.116Z,2.47
2018-09-29T06:34:04.750Z,2.00
2018-09-29T06:36:08.221Z,1.73
2018-09-29T06:38:11.709Z,1.70
2018-09-29T06:40:15.230Z,1.80
2018-09-29T06:42:18.768Z,1.87
2018-09-29T06:44:22.419Z,1.83
2018-09-29T06:46:25.950Z,1.93
2018-09-29T06:48:29.450Z,1.70
2018-09-29T06:50:32.971Z,1.70
2018-09-29T06:52:36.718Z,1.70
2018-09-29T06:54:40.359Z,1.77
2018-09-29T06:56:43.973Z,1.77
2018-09-29T06:58:47.521Z,1.90
2018-09-29T07:00:51.274Z,1.67
2018-09-29T07:02:54.792Z,1.53
2018-09-29T07:04:58.320Z,1.60
2018-09-29T07:07:01.847Z,1.57
2018-09-29T07:09:08.005Z,1.60
2018-09-29T07:11:11.595Z,1.80
2018-09-29T07:13:15.185Z,2.03
2018-09-29T07:15:18.801Z,1.40
2018-09-29T07:17:22.357Z,1.53
2018-09-29T07:19:25.895Z,1.87
2018-09-29T07:21:29.503Z,2.00
2018-09-29T07:23:33.118Z,1.90
2018-09-29T07:25:36.746Z,1.80
2018-09-29T07:27:40.300Z,2.10
2018-09-29T07:29:43.943Z,2.10
2018-09-29T07:31:47.510Z,1.80
2018-09-29T07:33:51.306Z,1.50
2018-09-29T07:35:54.866Z,1.53
2018-09-29T07:37:58.473Z,1.83
2018-09-29T07:40:02.057Z,1.90
2018-09-29T07:42:05.820Z,2.03
2018-09-29T07:44:09.834Z,1.93
2018-09-29T07:46:13.466Z,2.17
2018-09-29T07:48:17.014Z,1.70
2018-09-29T07:50:20.767Z,1.53
2018-09-29T07:52:24.615Z,1.60
2018-09-29T07:54:28.125Z,1.87
2018-09-29T07:56:31.673Z,2.13
2018-09-29T07:58:35.311Z,1.97
2018-09-29T08:00:38.880Z,2.07
2018-09-29T08:02:42.834Z,2.13
2018-09-29T08:04:46.404Z,2.00
2018-09-29T08:06:50.156Z,1.77
2018-09-29T08:08:53.797Z,1.90
2018-09-29T08:10:57.635Z,1.87
2018-09-29T08:13:01.193Z,2.13
2018-09-29T08:15:04.797Z,1.50
2018-09-29T08:17:08.305Z,1.90
2018-09-29T08:19:11.882Z,1.77
2018-09-29T08:21:15.428Z,2.10
2018-09-29T08:23:18.923Z,2.10
2018-09-29T08:25:22.471Z,1.90
2018-09-29T08:27:25.988Z,1.70
2018-09-29T08:29:29.641Z,2.30
2018-09-29T08:31:33.220Z,1.90
2018-09-29T08:33:43.408Z,1.60
2018-09-29T08:35:47.002Z,1.80
2018-09-29T08:37:50.693Z,1.80
2018-09-29T08:39:54.218Z,1.87
2018-09-29T08:41:57.978Z,2.10
2018-09-29T08:44:01.533Z,1.77
2018-09-29T08:46:05.198Z,2.13
2018-09-29T08:48:08.815Z,1.83
2018-09-29T08:50:12.548Z,1.87
2018-09-29T08:52:16.116Z,2.10
2018-09-29T08:54:19.657Z,2.00
2018-09-29T08:56:23.326Z,2.43
2018-09-29T08:58:26.832Z,2.03
2018-09-29T09:00:30.328Z,2.50
2018-09-29T09:02:34.116Z,2.37
2018-09-29T09:04:37.648Z,2.63
2018-09-29T09:06:41.212Z,2.37
2018-09-29T09:08:44.739Z,2.17
2018-09-29T09:10:48.311Z,2.60
2018-09-29T09:12:51.836Z,2.33
2018-09-29T09:14:55.354Z,2.70
2018-09-29T09:16:58.920Z,3.23
2018-09-29T09:19:02.556Z,2.80
2018-09-29T09:21:06.139Z,2.90
2018-09-29T09:23:09.686Z,2.50
2018-09-29T09:25:13.384Z,2.80
2018-09-29T09:27:16.907Z,2.70
2018-09-29T09:29:20.507Z,2.33
2018-09-29T09:31:24.056Z,2.47
2018-09-29T09:33:27.603Z,2.80
2018-09-29T09:35:31.199Z,2.93
2018-09-29T09:37:34.899Z,2.47
2018-09-29T09:39:38.464Z,3.03
2018-09-29T09:41:42.098Z,3.10
2018-09-29T09:43:45.715Z,2.50
2018-09-29T09:45:49.445Z,2.27
2018-09-29T09:47:52.965Z,2.93
2018-09-29T09:49:56.491Z,2.40
2018-09-29T09:52:00.218Z,2.90
2018-09-29T09:54:04.075Z,3.33
2018-09-29T09:56:07.917Z,3.03
2018-09-29T09:58:11.471Z,2.90
2018-09-29T10:00:15.136Z,3.50
2018-09-29T10:02:24.077Z,3.90
2018-09-29T10:04:27.637Z,3.17
2018-09-29T10:06:31.270Z,3.30
2018-09-29T10:08:35.222Z,2.50
2018-09-29T10:10:38.768Z,3.00
2018-09-29T10:12:42.413Z,2.87
2018-09-29T10:14:45.915Z,2.90
2018-09-29T10:16:49.499Z,2.93
2018-09-29T10:18:53.033Z,3.00
2018-09-29T10:20:56.623Z,3.03
2018-09-29T10:23:00.358Z,3.30
2018-09-29T10:25:04.016Z,3.27
2018-09-29T10:27:07.559Z,3.50
2018-09-29T10:29:11.107Z,3.37
2018-09-29T10:31:14.615Z,3.60
2018-09-29T10:33:18.170Z,3.80
2018-09-29T10:35:21.696Z,3.63
2018-09-29T10:37:25.268Z,3.30
2018-09-29T10:39:29.207Z,3.47
2018-09-29T10:41:32.969Z,3.67
2018-09-29T10:43:36.620Z,4.13
2018-09-29T10:45:40.214Z,4.43
2018-09-29T10:47:43.822Z,4.23
2018-09-29T10:49:47.430Z,4.20
2018-09-29T10:51:51.036Z,3.50
2018-09-29T10:53:54.629Z,4.10
2018-09-29T10:55:59.812Z,4.50
2018-09-29T10:58:03.337Z,4.60
2018-09-29T11:00:06.954Z,4.87
2018-09-29T11:02:11.040Z,4.47
2018-09-29T11:04:14.622Z,4.47
2018-09-29T11:06:18.313Z,4.63
2018-09-29T11:08:21.844Z,4.30
2018-09-29T11:10:25.524Z,4.90
2018-09-29T11:12:29.095Z,4.73
2018-09-29T11:14:32.803Z,3.53
2018-09-29T11:16:36.359Z,4.30
2018-09-29T11:18:39.895Z,4.70
2018-09-29T11:20:43.549Z,4.80
2018-09-29T11:22:47.188Z,4.83
2018-09-29T11:24:50.740Z,5.00
2018-09-29T11:26:54.413Z,4.07
2018-09-29T11:28:57.924Z,4.20
2018-09-29T11:31:01.698Z,4.20
2018-09-29T11:33:05.450Z,4.70
2018-09-29T11:35:09.001Z,4.17
2018-09-29T11:37:12.520Z,5.10
2018-09-29T11:39:16.134Z,4.90
2018-09-29T11:41:19.724Z,4.23
2018-09-29T11:43:23.300Z,4.63
2018-09-29T11:45:27.119Z,4.73
2018-09-29T11:47:30.664Z,4.60
2018-09-29T11:49:34.257Z,4.87
2018-09-29T11:51:37.804Z,4.67
2018-09-29T11:53:41.331Z,5.60
2018-09-29T11:55:45.013Z,4.47
2018-09-29T11:57:48.504Z,4.90
2018-09-29T11:59:52.138Z,4.40
2018-09-29T12:01:55.820Z,5.17
2018-09-29T12:03:59.324Z,5.20
2018-09-29T12:06:03.076Z,5.30
2018-09-29T12:08:06.769Z,5.40
2018-09-29T12:10:10.295Z,4.80
2018-09-29T12:12:13.881Z,5.30
2018-09-29T12:14:17.539Z,5.00
2018-09-29T12:16:21.167Z,4.93
2018-09-29T12:18:24.715Z,5.20
2018-09-29T12:20:28.499Z,5.47
2018-09-29T12:22:32.252Z,4.90
2018-09-29T12:24:35.747Z,4.63
2018-09-29T12:26:39.278Z,4.83
2018-09-29T12:28:44.342Z,5.13
2018-09-29T12:30:47.891Z,4.30
2018-09-29T12:32:51.425Z,4.60
2018-09-29T12:34:55.001Z,5.53
2018-09-29T12:36:58.648Z,4.70
2018-09-29T12:39:02.108Z,4.70
2018-09-29T12:41:05.926Z,4.40
2018-09-29T12:43:09.572Z,4.33
2018-09-29T12:45:13.130Z,4.70
2018-09-29T12:47:16.976Z,4.80
2018-09-29T12:49:20.525Z,4.00
2018-09-29T12:51:24.262Z,4.33
2018-09-29T12:53:27.812Z,4.80
2018-09-29T12:55:31.591Z,4.07
2018-09-29T12:57:35.112Z,3.83
2018-09-29T12:59:38.804Z,3.97
2018-09-29T13:01:42.352Z,3.97
2018-09-29T13:03:45.874Z,4.40
2018-09-29T13:05:49.451Z,4.97
2018-09-29T13:07:53.033Z,4.23
2018-09-29T13:11:58.044Z,3.90
2018-09-29T13:14:01.649Z,3.60
2018-09-29T13:16:05.181Z,3.80
2018-09-29T13:18:08.771Z,4.10
2018-09-29T13:20:12.350Z,4.13
2018-09-29T13:22:15.908Z,3.73
2018-09-29T13:24:19.654Z,3.57
2018-09-29T13:26:23.166Z,4.20
2018-09-29T13:28:26.773Z,3.40
2018-09-29T13:30:30.362Z,5.00
2018-09-29T13:32:34.080Z,4.20
2018-09-29T13:34:37.683Z,3.80
2018-09-29T13:36:41.345Z,3.83
2018-09-29T13:38:45.543Z,3.60
2018-09-29T13:40:49.330Z,3.33
2018-09-29T13:42:52.854Z,3.70
2018-09-29T13:44:56.676Z,3.90
2018-09-29T13:47:00.216Z,3.80
2018-09-29T13:49:03.861Z,4.93
2018-09-29T13:51:07.586Z,3.70
2018-09-29T13:53:11.283Z,4.20
2018-09-29T13:55:14.795Z,3.60
2018-09-29T13:57:18.322Z,4.07
2018-09-29T13:59:22.022Z,3.30
2018-09-29T14:01:25.828Z,3.03
2018-09-29T14:03:29.397Z,3.30
2018-09-29T14:05:33.014Z,3.40
2018-09-29T14:07:36.542Z,3.30
2018-09-29T14:09:40.091Z,3.20
2018-09-29T14:11:43.640Z,2.90
2018-09-29T14:13:47.211Z,3.30
2018-09-29T14:15:50.905Z,2.60
2018-09-29T14:17:54.492Z,3.60
2018-09-29T14:19:58.076Z,3.20
2018-09-29T14:22:01.660Z,3.33
2018-09-29T14:24:05.207Z,3.50
2018-09-29T14:26:08.836Z,3.33
2018-09-29T14:28:12.391Z,3.20
2018-09-29T14:30:16.198Z,3.00
2018-09-29T14:32:19.712Z,3.07
2018-09-29T14:34:23.248Z,3.10
2018-09-29T14:36:26.982Z,2.93
2018-09-29T14:38:30.536Z,2.43
2018-09-29T14:40:34.175Z,3.23
2018-09-29T14:42:37.700Z,3.10
2018-09-29T14:44:41.244Z,3.10
2018-09-29T14:46:44.775Z,3.70
2018-09-29T14:48:48.331Z,3.13
2018-09-29T14:50:51.958Z,2.83
2018-09-29T14:52:55.601Z,2.90
2018-09-29T14:54:59.359Z,3.10
2018-09-29T14:57:02.921Z,2.70
2018-09-29T14:59:06.515Z,3.23
2018-09-29T15:01:10.040Z,3.47
2018-09-29T15:03:13.638Z,2.80
2018-09-29T15:05:17.175Z,3.20
2018-09-29T15:07:20.761Z,2.93
2018-09-29T15:09:24.348Z,2.93
2018-09-29T15:11:27.867Z,2.80
2018-09-29T15:13:31.503Z,2.50
2018-09-29T15:15:35.032Z,3.27
2018-09-29T15:17:38.554Z,2.57
2018-09-29T15:19:42.112Z,3.37
2018-09-29T15:21:45.651Z,2.83
2018-09-29T15:23:49.203Z,2.80
2018-09-29T15:25:52.733Z,2.47
2018-09-29T15:27:56.467Z,2.40
2018-09-29T15:30:00.029Z,2.40
2018-09-29T15:32:03.576Z,2.97
2018-09-29T15:34:07.197Z,3.13
2018-09-29T15:36:10.814Z,2.17
2018-09-29T15:38:14.311Z,2.50
2018-09-29T15:40:18.103Z,2.77
2018-09-29T15:42:21.746Z,2.77
2018-09-29T15:44:25.296Z,2.43
2018-09-29T15:46:28.818Z,2.80
2018-09-29T15:48:32.491Z,2.40
2018-09-29T15:50:36.104Z,2.43
2018-09-29T15:52:39.713Z,2.20
2018-09-29T15:54:43.483Z,2.07
2018-09-29T15:56:47.044Z,2.30
2018-09-29T15:58:50.896Z,2.43
2018-09-29T16:00:54.615Z,2.50
2018-09-29T16:02:58.623Z,2.47
2018-09-29T16:05:02.212Z,1.97
2018-09-29T16:07:05.939Z,2.10
2018-09-29T16:09:10.501Z,2.00
2018-09-29T16:11:14.167Z,2.07
2018-09-29T16:13:18.027Z,2.17
2018-09-29T16:15:21.960Z,2.10
2018-09-29T16:17:25.657Z,1.90
2018-09-29T16:19:29.282Z,2.07
2018-09-29T16:21:33.011Z,2.03
2018-09-29T16:23:36.628Z,1.70
2018-09-29T16:25:40.180Z,2.00
2018-09-29T16:27:43.685Z,2.43
2018-09-29T16:29:47.498Z,2.50
2018-09-29T16:31:51.050Z,2.10
2018-09-29T16:33:54.717Z,1.87
2018-09-29T16:35:58.326Z,2.90
2018-09-29T16:38:01.853Z,2.77
2018-09-29T16:40:05.513Z,2.20
2018-09-29T16:42:09.066Z,2.70
2018-09-29T16:44:12.756Z,2.20
2018-09-29T16:46:16.320Z,2.30
2018-09-29T16:48:20.125Z,2.17
2018-09-29T16:50:23.880Z,2.30
2018-09-29T16:52:27.494Z,2.10
2018-09-29T16:54:31.072Z,1.80
2018-09-29T16:56:34.928Z,2.67
2018-09-29T16:58:38.548Z,2.13
2018-09-29T17:00:42.259Z,2.60
2018-09-29T17:02:45.845Z,17.03
2018-09-29T17:04:49.471Z,5.93
2018-09-29T17:06:53.053Z,4.27
2018-09-29T17:08:56.565Z,3.53
2018-09-29T17:11:00.074Z,4.13
2018-09-29T17:13:03.608Z,3.30
2018-09-29T17:15:07.308Z,2.30
2018-09-29T17:17:10.809Z,2.53
2018-09-29T17:19:14.342Z,2.03
2018-09-29T17:21:18.232Z,2.53
2018-09-29T17:23:21.912Z,2.07
2018-09-29T17:25:25.509Z,2.30
2018-09-29T17:27:29.072Z,2.37
2018-09-29T17:29:32.598Z,2.13
2018-09-29T17:31:36.219Z,2.10
2018-09-29T17:33:39.766Z,2.10
2018-09-29T17:35:43.483Z,1.83
2018-09-29T17:37:46.987Z,1.87
2018-09-29T17:39:50.500Z,7.67
2018-09-29T17:41:54.071Z,9.63
2018-09-29T17:43:57.751Z,5.87
2018-09-29T17:46:01.408Z,6.70
2018-09-29T17:48:04.941Z,4.57
2018-09-29T17:50:09.667Z,5.20
2018-09-29T17:52:13.311Z,21.57
2018-09-29T17:54:16.879Z,16.83
2018-09-29T17:56:20.460Z,9.83
2018-09-29T17:58:24.030Z,3.50
2018-09-29T18:00:27.754Z,2.57
2018-09-29T18:02:31.323Z,2.83
2018-09-29T18:04:34.912Z,3.23
2018-09-29T18:06:38.618Z,4.20
2018-09-29T18:08:42.424Z,3.30
2018-09-29T18:10:46.168Z,4.13
2018-09-29T18:12:49.893Z,2.17
2018-09-29T18:14:53.440Z,2.43
2018-09-29T18:16:56.952Z,2.57
2018-09-29T18:19:00.523Z,2.67
2018-09-29T18:21:04.076Z,2.30
2018-09-29T18:23:07.777Z,2.30
2018-09-29T18:25:11.426Z,2.13
2018-09-29T18:27:14.984Z,2.43
2018-09-29T18:29:18.537Z,2.67
2018-09-29T18:31:22.271Z,2.33
2018-09-29T18:33:25.822Z,2.53
2018-09-29T18:35:29.452Z,2.23
2018-09-29T18:37:33.020Z,2.53
2018-09-29T18:39:36.603Z,2.20
2018-09-29T18:41:40.171Z,2.37
2018-09-29T18:43:43.767Z,2.40
2018-09-29T18:45:47.305Z,2.27
2018-09-29T18:47:50.878Z,2.23
2018-09-29T18:49:54.590Z,2.10
2018-09-29T18:51:58.139Z,2.00
2018-09-29T18:54:01.724Z,2.50
2018-09-29T18:56:05.320Z,2.20
2018-09-29T18:58:08.844Z,2.50
2018-09-29T19:00:12.544Z,2.70
2018-09-29T19:02:16.184Z,2.90
2018-09-29T19:04:19.690Z,4.43
2018-09-29T19:06:23.319Z,4.30
2018-09-29T19:08:27.073Z,6.43
2018-09-29T19:10:30.721Z,6.47
2018-09-29T19:12:34.350Z,5.10
2018-09-29T19:14:37.865Z,5.93
2018-09-29T19:16:41.564Z,27.33
2018-09-29T19:18:45.208Z,11.73
2018-09-29T19:20:48.831Z,10.30
2018-09-29T19:22:52.662Z,8.23
2018-09-29T19:24:56.333Z,54.57
2018-09-29T19:26:59.876Z,23.63
2018-09-29T19:29:03.808Z,11.73
2018-09-29T19:31:07.573Z,14.63
2018-09-29T19:33:11.227Z,12.07
2018-09-29T19:35:14.829Z,11.57
2018-09-29T19:37:18.525Z,7.77
2018-09-29T19:39:22.100Z,7.17
2018-09-29T19:41:25.706Z,5.97
2018-09-29T19:43:29.383Z,6.20
2018-09-29T19:45:33.136Z,6.10
2018-09-29T19:47:36.799Z,5.93
2018-09-29T19:49:40.458Z,5.47
2018-09-29T19:51:44.233Z,6.90
2018-09-29T19:53:47.860Z,6.50
2018-09-29T19:55:51.449Z,6.87
2018-09-29T19:57:55.046Z,7.07
2018-09-29T19:59:58.626Z,6.90
2018-09-29T20:02:02.513Z,7.10
2018-09-29T20:04:06.145Z,6.20
2018-09-29T20:06:09.775Z,6.30
2018-09-29T20:08:13.447Z,6.00
2018-09-29T20:10:17.031Z,6.43
2018-09-29T20:12:20.659Z,6.20
2018-09-29T20:14:24.234Z,6.37
2018-09-29T20:16:27.842Z,6.87
2018-09-29T20:18:31.419Z,6.90
2018-09-29T20:20:34.956Z,6.80
2018-09-29T20:22:38.582Z,6.77
2018-09-29T20:24:42.230Z,8.20
2018-09-29T20:26:45.966Z,7.50
2018-09-29T20:28:49.488Z,8.07
2018-09-29T20:30:53.163Z,6.90
2018-09-29T20:32:56.850Z,6.57
2018-09-29T20:35:00.382Z,6.23
2018-09-29T20:37:04.153Z,6.90
2018-09-29T20:39:10.305Z,5.93
2018-09-29T20:41:13.868Z,6.30
2018-09-29T20:43:17.457Z,7.57
2018-09-29T20:45:21.196Z,7.20
2018-09-29T20:47:24.704Z,8.33
2018-09-29T20:49:28.277Z,8.17
2018-09-29T20:51:31.946Z,8.27
2018-09-29T20:53:35.487Z,7.80
2018-09-29T20:55:39.230Z,8.30
2018-09-29T20:57:42.753Z,7.50
2018-09-29T20:59:46.373Z,7.13
2018-09-29T21:01:50.121Z,21.10
2018-09-29T21:03:53.784Z,29.67
2018-09-29T21:05:57.336Z,17.60
2018-09-29T21:08:01.024Z,9.27
2018-09-29T21:10:04.800Z,7.80
2018-09-29T21:12:08.457Z,7.33
2018-09-29T21:14:12.126Z,16.30
2018-09-29T21:16:15.774Z,10.70
2018-09-29T21:18:19.385Z,6.83
2018-09-29T21:20:23.075Z,5.63
2018-09-29T21:22:26.655Z,5.43
2018-09-29T21:24:30.304Z,5.13
2018-09-29T21:26:33.848Z,5.40
2018-09-29T21:28:37.388Z,6.10
2018-09-29T21:30:41.052Z,4.93
2018-09-29T21:32:44.816Z,7.30
2018-09-29T21:34:48.367Z,6.27
2018-09-29T21:36:52.188Z,7.90
2018-09-29T21:38:55.893Z,6.87
2018-09-29T21:40:59.490Z,5.37
2018-09-29T21:43:03.278Z,4.93
2018-09-29T21:45:06.870Z,4.83
2018-09-29T21:47:10.559Z,4.40
2018-09-29T21:49:14.134Z,4.27
2018-09-29T21:51:17.692Z,4.50
2018-09-29T21:53:21.402Z,4.63
2018-09-29T21:55:25.103Z,4.70
2018-09-29T21:57:28.944Z,5.30
2018-09-29T21:59:32.520Z,4.97
2018-09-29T22:01:36.103Z,5.20
2018-09-29T22:03:39.682Z,5.53
2018-09-29T22:05:43.560Z,5.90
2018-09-29T22:07:47.133Z,6.07
2018-09-29T22:09:50.732Z,8.30
2018-09-29T22:11:54.266Z,10.63
2018-09-29T22:13:57.812Z,6.83
2018-09-29T22:16:01.538Z,9.47
2018-09-29T22:18:05.160Z,6.40
2018-09-29T22:20:08.747Z,6.17
2018-09-29T22:22:12.311Z,4.87
2018-09-29T22:24:15.892Z,6.17
2018-09-29T22:26:19.652Z,4.87
2018-09-29T22:28:23.275Z,4.60
2018-09-29T22:30:26.847Z,4.50
2018-09-29T22:32:30.397Z,4.20
2018-09-29T22:34:33.927Z,4.40
2018-09-29T22:36:37.619Z,6.47
2018-09-29T22:38:41.221Z,6.47
2018-09-29T22:40:45.025Z,8.33
2018-09-29T22:42:48.719Z,7.77
2018-09-29T22:44:52.222Z,4.57
2018-09-29T22:46:55.756Z,6.43
2018-09-29T22:48:59.285Z,5.47
2018-09-29T22:51:02.881Z,5.97
2018-09-29T22:53:06.621Z,5.63
2018-09-29T22:55:10.318Z,5.60
2018-09-29T22:57:13.851Z,6.10
2018-09-29T22:59:17.448Z,5.60
2018-09-29T23:01:21.033Z,5.93
2018-09-29T23:03:24.600Z,5.50
2018-09-29T23:05:28.322Z,4.93
2018-09-29T23:07:31.881Z,5.53
2018-09-29T23:09:35.504Z,5.10
2018-09-29T23:11:39.152Z,4.83
2018-09-29T23:13:42.879Z,4.87
2018-09-29T23:15:46.397Z,5.17
2018-09-29T23:17:49.949Z,5.90
2018-09-29T23:19:53.554Z,5.30
2018-09-29T23:21:57.158Z,4.73
2018-09-29T23:24:00.884Z,4.33
2018-09-29T23:26:04.466Z,3.90
2018-09-29T23:28:08.008Z,4.07
2018-09-29T23:30:11.716Z,4.37
2018-09-29T23:32:15.326Z,4.47
2018-09-29T23:34:18.909Z,4.53
2018-09-29T23:36:22.455Z,5.00
2018-09-29T23:38:25.982Z,4.37
2018-09-29T23:40:29.517Z,4.40
2018-09-29T23:42:33.200Z,4.70
2018-09-29T23:44:37.015Z,4.37
2018-09-29T23:46:40.591Z,4.10
2018-09-29T23:48:44.151Z,3.70
2018-09-29T23:50:47.824Z,4.20
2018-09-29T23:52:51.743Z,4.27
2018-09-29T23:54:55.289Z,4.00
2018-09-29T23:56:58.919Z,4.07
2018-09-29T23:59:02.522Z,3.70
